Terminal Aerodrome Forecast
Issued by NWS

Home | Current Version | Previous Version | Text Only | Print | Product List | Glossary On
Versions: 1 2 3 4 5 6 7 8 9 10 11 12 13 14
000
FTUS44 KEPZ 272300
TAFLRU
TAF
KLRU 272335Z 2800/2824 35012G22KT P6SM VCTS BKN050CB OVC180
      TEMPO 2800/2801 VRB25G45KT 2SM TSRA OVC050CB
     FM280300 VRB05KT P6SM SCT060 BKN150
     FM281000 34005KT P6SM FEW080=

USA.gov is the U.S. government's official web portal to all federal, state and local government web resources and services.